sensor_id;sensor_type;location;lat;lon;timestamp;pressure;altitude;pressure_sealevel;temperature;humidity
4143;BME280;2085;51.052;6.958;2022-09-21T00:01:24;102218.84;;;9.21;75.69
4143;BME280;2085;51.052;6.958;2022-09-21T00:03:52;102218.00;;;9.19;75.60
4143;BME280;2085;51.052;6.958;2022-09-21T00:06:20;102223.25;;;9.19;75.68
4143;BME280;2085;51.052;6.958;2022-09-21T00:08:48;102220.63;;;9.19;75.77
4143;BME280;2085;51.052;6.958;2022-09-21T00:11:18;102220.63;;;9.19;75.71
4143;BME280;2085;51.052;6.958;2022-09-21T00:13:45;102218.03;;;9.17;75.74
4143;BME280;2085;51.052;6.958;2022-09-21T00:16:14;102213.69;;;9.16;75.64
4143;BME280;2085;51.052;6.958;2022-09-21T00:35:33;102224.72;;;8.89;75.71
4143;BME280;2085;51.052;6.958;2022-09-21T00:41:22;102233.66;;;8.79;75.93
4143;BME280;2085;51.052;6.958;2022-09-21T00:44:23;102231.09;;;8.76;75.94
4143;BME280;2085;51.052;6.958;2022-09-21T00:46:52;102231.16;;;8.73;76.06
4143;BME280;2085;51.052;6.958;2022-09-21T00:49:20;102235.56;;;8.71;76.03
4143;BME280;2085;51.052;6.958;2022-09-21T00:51:50;102233.88;;;8.67;76.01
4143;BME280;2085;51.052;6.958;2022-09-21T00:54:21;102237.47;;;8.61;76.13
4143;BME280;2085;51.052;6.958;2022-09-21T00:56:49;102241.94;;;8.58;76.22
4143;BME280;2085;51.052;6.958;2022-09-21T00:59:17;102247.25;;;8.53;76.18
4143;BME280;2085;51.052;6.958;2022-09-21T01:01:44;102240.34;;;8.47;76.35
4143;BME280;2085;51.052;6.958;2022-09-21T01:04:11;102239.53;;;8.45;76.46
4143;BME280;2085;51.052;6.958;2022-09-21T01:06:39;102240.41;;;8.44;76.55
4143;BME280;2085;51.052;6.958;2022-09-21T01:09:08;102241.28;;;8.45;76.52
4143;BME280;2085;51.052;6.958;2022-09-21T01:11:42;102241.28;;;8.45;76.57
4143;BME280;2085;51.052;6.958;2022-09-21T01:14:27;102242.16;;;8.44;76.68
4143;BME280;2085;51.052;6.958;2022-09-21T01:17:02;102236.94;;;8.42;76.72
4143;BME280;2085;51.052;6.958;2022-09-21T01:22:44;102240.47;;;8.41;76.65
4143;BME280;2085;51.052;6.958;2022-09-21T01:25:23;102242.25;;;8.39;76.56
4143;BME280;2085;51.052;6.958;2022-09-21T01:28:03;102233.53;;;8.37;76.65
4143;BME280;2085;51.052;6.958;2022-09-21T01:30:35;102242.31;;;8.36;76.72
4143;BME280;2085;51.052;6.958;2022-09-21T01:33:08;102242.31;;;8.35;76.64
4143;BME280;2085;51.052;6.958;2022-09-21T01:35:42;102245.88;;;8.32;76.37
4143;BME280;2085;51.052;6.958;2022-09-21T01:38:14;102247.66;;;8.27;76.41
4143;BME280;2085;51.052;6.958;2022-09-21T01:40:47;102247.69;;;8.24;76.51
4143;BME280;2085;51.052;6.958;2022-09-21T01:43:21;102254.75;;;8.22;76.57
4143;BME280;2085;51.052;6.958;2022-09-21T01:45:52;102248.63;;;8.20;76.63
4143;BME280;2085;51.052;6.958;2022-09-21T01:48:20;102252.16;;;8.19;76.71
4143;BME280;2085;51.052;6.958;2022-09-21T01:50:50;102248.69;;;8.19;76.81
4143;BME280;2085;51.052;6.958;2022-09-21T01:53:22;102247.81;;;8.18;76.67
4143;BME280;2085;51.052;6.958;2022-09-21T01:55:53;102247.81;;;8.18;76.79
4143;BME280;2085;51.052;6.958;2022-09-21T01:58:26;102244.31;;;8.18;76.69
4143;BME280;2085;51.052;6.958;2022-09-21T02:00:58;102246.06;;;8.17;76.89
4143;BME280;2085;51.052;6.958;2022-09-21T02:03:28;102249.56;;;8.16;76.64
4143;BME280;2085;51.052;6.958;2022-09-21T02:06:00;102251.38;;;8.14;76.69
4143;BME280;2085;51.052;6.958;2022-09-21T02:08:29;102249.63;;;8.13;76.64
4143;BME280;2085;51.052;6.958;2022-09-21T02:10:58;102253.13;;;8.12;76.63
4143;BME280;2085;51.052;6.958;2022-09-21T02:13:28;102252.31;;;8.10;76.71
4143;BME280;2085;51.052;6.958;2022-09-21T02:16:07;102246.22;;;8.08;76.71
4143;BME280;2085;51.052;6.958;2022-09-21T02:18:42;102244.53;;;8.04;76.64
4143;BME280;2085;51.052;6.958;2022-09-21T02:21:20;102251.53;;;8.02;76.51
4143;BME280;2085;51.052;6.958;2022-09-21T02:23:56;102249.84;;;7.98;76.83
4143;BME280;2085;51.052;6.958;2022-09-21T02:26:32;102241.16;;;7.96;76.88
4143;BME280;2085;51.052;6.958;2022-09-21T02:29:07;102239.41;;;7.95;76.94
4143;BME280;2085;51.052;6.958;2022-09-21T02:31:47;102246.47;;;7.91;76.73
4143;BME280;2085;51.052;6.958;2022-09-21T02:34:20;102244.75;;;7.89;76.64
4143;BME280;2085;51.052;6.958;2022-09-21T02:36:52;102238.69;;;7.85;76.80
4143;BME280;2085;51.052;6.958;2022-09-21T02:39:28;102246.56;;;7.84;76.86
4143;BME280;2085;51.052;6.958;2022-09-21T02:42:00;102244.88;;;7.80;76.88
4143;BME280;2085;51.052;6.958;2022-09-21T02:44:31;102244.03;;;7.78;76.95
4143;BME280;2085;51.052;6.958;2022-09-21T02:47:04;102241.44;;;7.75;76.82
4143;BME280;2085;51.052;6.958;2022-09-21T02:49:37;102237.13;;;7.72;76.82
4143;BME280;2085;51.052;6.958;2022-09-21T02:52:10;102238.03;;;7.70;76.94
4143;BME280;2085;51.052;6.958;2022-09-21T02:54:39;102247.69;;;7.68;76.84
4143;BME280;2085;51.052;6.958;2022-09-21T02:57:08;102243.38;;;7.63;76.93
4143;BME280;2085;51.052;6.958;2022-09-21T02:59:37;102244.25;;;7.61;76.96
4143;BME280;2085;51.052;6.958;2022-09-21T03:02:05;102241.69;;;7.59;76.99
4143;BME280;2085;51.052;6.958;2022-09-21T03:04:32;102242.56;;;7.58;76.95
4143;BME280;2085;51.052;6.958;2022-09-21T03:06:59;102240.84;;;7.56;76.87
4143;BME280;2085;51.052;6.958;2022-09-21T03:09:25;102238.25;;;7.54;76.75
4143;BME280;2085;51.052;6.958;2022-09-21T03:11:52;102235.63;;;7.53;76.98
4143;BME280;2085;51.052;6.958;2022-09-21T03:14:18;102238.28;;;7.51;76.93
4143;BME280;2085;51.052;6.958;2022-09-21T03:16:45;102233.06;;;7.50;77.04
4143;BME280;2085;51.052;6.958;2022-09-21T03:19:13;102231.31;;;7.50;77.00
4143;BME280;2085;51.052;6.958;2022-09-21T03:21:40;102237.44;;;7.48;76.96
4143;BME280;2085;51.052;6.958;2022-09-21T03:24:07;102239.25;;;7.44;77.23
4143;BME280;2085;51.052;6.958;2022-09-21T03:26:33;102239.28;;;7.41;77.19
4143;BME280;2085;51.052;6.958;2022-09-21T03:29:00;102245.41;;;7.40;77.34
4143;BME280;2085;51.052;6.958;2022-09-21T03:31:29;102240.22;;;7.37;77.24
4143;BME280;2085;51.052;6.958;2022-09-21T03:33:56;102247.19;;;7.38;77.45
4143;BME280;2085;51.052;6.958;2022-09-21T03:36:24;102243.72;;;7.36;77.42
4143;BME280;2085;51.052;6.958;2022-09-21T03:38:50;102242.84;;;7.34;77.29
4143;BME280;2085;51.052;6.958;2022-09-21T03:41:17;102245.47;;;7.34;77.14
4143;BME280;2085;51.052;6.958;2022-09-21T03:43:43;102248.09;;;7.34;77.25
4143;BME280;2085;51.052;6.958;2022-09-21T03:46:10;102254.25;;;7.33;77.61
4143;BME280;2085;51.052;6.958;2022-09-21T03:48:36;102250.75;;;7.31;77.34
4143;BME280;2085;51.052;6.958;2022-09-21T03:51:04;102252.53;;;7.29;77.31
4143;BME280;2085;51.052;6.958;2022-09-21T03:53:32;102250.81;;;7.27;77.38
4143;BME280;2085;51.052;6.958;2022-09-21T03:55:59;102247.38;;;7.23;77.53
4143;BME280;2085;51.052;6.958;2022-09-21T03:58:26;102251.75;;;7.21;77.54
4143;BME280;2085;51.052;6.958;2022-09-21T04:00:52;102248.25;;;7.21;77.84
4143;BME280;2085;51.052;6.958;2022-09-21T04:03:19;102244.81;;;7.20;77.41
4143;BME280;2085;51.052;6.958;2022-09-21T04:05:45;102245.69;;;7.19;77.46
4143;BME280;2085;51.052;6.958;2022-09-21T04:08:12;102244.81;;;7.17;77.49
4143;BME280;2085;51.052;6.958;2022-09-21T04:10:40;102241.34;;;7.15;77.56
4143;BME280;2085;51.052;6.958;2022-09-21T04:13:07;102243.13;;;7.13;77.57
4143;BME280;2085;51.052;6.958;2022-09-21T04:15:35;102235.31;;;7.10;77.57
4143;BME280;2085;51.052;6.958;2022-09-21T04:18:01;102244.03;;;7.09;77.46
4143;BME280;2085;51.052;6.958;2022-09-21T04:20:28;102242.28;;;7.08;77.48
4143;BME280;2085;51.052;6.958;2022-09-21T04:22:54;102240.56;;;7.07;77.59
4143;BME280;2085;51.052;6.958;2022-09-21T04:25:21;102247.56;;;7.06;77.65
4143;BME280;2085;51.052;6.958;2022-09-21T04:27:49;102242.34;;;7.05;77.57
4143;BME280;2085;51.052;6.958;2022-09-21T04:30:16;102250.19;;;7.03;77.57
4143;BME280;2085;51.052;6.958;2022-09-21T04:32:43;102249.34;;;7.03;77.39
4143;BME280;2085;51.052;6.958;2022-09-21T04:35:10;102251.13;;;7.01;77.52
4143;BME280;2085;51.052;6.958;2022-09-21T04:37:37;102265.09;;;7.00;77.58
4143;BME280;2085;51.052;6.958;2022-09-21T04:40:05;102263.34;;;6.99;77.49
4143;BME280;2085;51.052;6.958;2022-09-21T04:42:32;102259.84;;;7.00;77.68
4143;BME280;2085;51.052;6.958;2022-09-21T04:44:59;102262.47;;;7.00;77.57
4143;BME280;2085;51.052;6.958;2022-09-21T04:47:28;102262.47;;;7.00;77.46
4143;BME280;2085;51.052;6.958;2022-09-21T04:49:55;102267.69;;;7.00;77.49
4143;BME280;2085;51.052;6.958;2022-09-21T04:52:21;102267.72;;;6.98;77.12
4143;BME280;2085;51.052;6.958;2022-09-21T04:54:48;102267.75;;;6.95;77.44
4143;BME280;2085;51.052;6.958;2022-09-21T04:57:15;102273.03;;;6.91;77.14
4143;BME280;2085;51.052;6.958;2022-09-21T04:59:41;102270.47;;;6.88;77.29
4143;BME280;2085;51.052;6.958;2022-09-21T05:02:09;102270.47;;;6.88;77.43
4143;BME280;2085;51.052;6.958;2022-09-21T05:04:36;102274.88;;;6.84;77.17
4143;BME280;2085;51.052;6.958;2022-09-21T05:07:03;102287.94;;;6.84;77.52
4143;BME280;2085;51.052;6.958;2022-09-21T05:09:29;102280.97;;;6.83;77.40
4143;BME280;2085;51.052;6.958;2022-09-21T05:12:28;102276.66;;;6.79;77.26
4143;BME280;2085;51.052;6.958;2022-09-21T05:14:54;102279.28;;;6.78;77.25
4143;BME280;2085;51.052;6.958;2022-09-21T05:17:23;102288.88;;;6.76;77.39
4143;BME280;2085;51.052;6.958;2022-09-21T05:19:50;102282.81;;;6.73;77.31
4143;BME280;2085;51.052;6.958;2022-09-21T05:22:17;102290.66;;;6.73;77.44
4143;BME280;2085;51.052;6.958;2022-09-21T05:24:44;102288.06;;;6.70;77.46
4143;BME280;2085;51.052;6.958;2022-09-21T05:27:11;102289.78;;;6.71;77.48
4143;BME280;2085;51.052;6.958;2022-09-21T05:29:38;102295.03;;;6.71;77.53
4143;BME280;2085;51.052;6.958;2022-09-21T05:32:10;102306.34;;;6.73;77.44
4143;BME280;2085;51.052;6.958;2022-09-21T05:34:48;102303.69;;;6.77;77.60
4143;BME280;2085;51.052;6.958;2022-09-21T05:37:35;102307.19;;;6.79;77.58
4143;BME280;2085;51.052;6.958;2022-09-21T05:40:05;102301.91;;;6.80;77.73
4143;BME280;2085;51.052;6.958;2022-09-21T05:42:32;102309.72;;;6.85;77.88
4143;BME280;2085;51.052;6.958;2022-09-21T05:45:00;102309.69;;;6.89;77.78
4143;BME280;2085;51.052;6.958;2022-09-21T05:47:36;102310.56;;;6.93;77.90
4143;BME280;2085;51.052;6.958;2022-09-21T05:50:15;102303.53;;;6.98;77.82
4143;BME280;2085;51.052;6.958;2022-09-21T05:52:52;102311.34;;;6.99;77.74
4143;BME280;2085;51.052;6.958;2022-09-21T05:55:27;102310.44;;;7.03;77.79
4143;BME280;2085;51.052;6.958;2022-09-21T05:58:02;102312.13;;;7.09;78.04
4143;BME280;2085;51.052;6.958;2022-09-21T06:00:38;102323.38;;;7.17;77.85
4143;BME280;2085;51.052;6.958;2022-09-21T06:03:26;102322.44;;;7.24;77.80
4143;BME280;2085;51.052;6.958;2022-09-21T06:05:55;102324.09;;;7.31;77.68
4143;BME280;2085;51.052;6.958;2022-09-21T06:08:22;102323.19;;;7.37;77.77
4143;BME280;2085;51.052;6.958;2022-09-21T06:10:49;102322.25;;;7.42;77.80
4143;BME280;2085;51.052;6.958;2022-09-21T06:13:16;102324.81;;;7.47;77.76
4143;BME280;2085;51.052;6.958;2022-09-21T06:15:42;102331.72;;;7.52;77.69
4143;BME280;2085;51.052;6.958;2022-09-21T06:18:09;102334.28;;;7.58;77.65
4143;BME280;2085;51.052;6.958;2022-09-21T06:20:36;102340.34;;;7.65;77.68
4143;BME280;2085;51.052;6.958;2022-09-21T06:23:05;102337.63;;;7.71;77.83
4143;BME280;2085;51.052;6.958;2022-09-21T06:25:32;102341.00;;;7.81;77.61
4143;BME280;2085;51.052;6.958;2022-09-21T06:28:01;102340.00;;;7.89;77.86
4143;BME280;2085;51.052;6.958;2022-09-21T06:30:28;102345.13;;;7.98;77.72
4143;BME280;2085;51.052;6.958;2022-09-21T06:32:58;102342.38;;;8.09;77.59
4143;BME280;2085;51.052;6.958;2022-09-21T06:35:25;102345.75;;;8.16;77.63
4143;BME280;2085;51.052;6.958;2022-09-21T06:37:51;102338.69;;;8.22;77.62
4143;BME280;2085;51.052;6.958;2022-09-21T06:40:19;102348.22;;;8.31;77.56
4143;BME280;2085;51.052;6.958;2022-09-21T06:42:46;102345.50;;;8.37;77.56
4143;BME280;2085;51.052;6.958;2022-09-21T06:45:12;102341.88;;;8.45;77.49
4143;BME280;2085;51.052;6.958;2022-09-21T06:47:45;102345.25;;;8.54;77.46
4143;BME280;2085;51.052;6.958;2022-09-21T06:50:12;102350.38;;;8.61;77.51
4143;BME280;2085;51.052;6.958;2022-09-21T06:52:38;102348.53;;;8.68;77.58
4143;BME280;2085;51.052;6.958;2022-09-21T06:55:06;102350.13;;;8.78;77.37
4143;BME280;2085;51.052;6.958;2022-09-21T06:57:35;102351.72;;;8.85;77.48
4143;BME280;2085;51.052;6.958;2022-09-21T07:00:03;102348.94;;;8.94;77.46
4143;BME280;2085;51.052;6.958;2022-09-21T07:02:30;102351.41;;;9.03;77.46
4143;BME280;2085;51.052;6.958;2022-09-21T07:04:57;102349.50;;;9.11;77.39
4143;BME280;2085;51.052;6.958;2022-09-21T07:07:24;102358.13;;;9.19;77.40
4143;BME280;2085;51.052;6.958;2022-09-21T07:09:50;102351.00;;;9.27;77.34
4143;BME280;2085;51.052;6.958;2022-09-21T07:12:17;102345.56;;;9.36;77.27
4143;BME280;2085;51.052;6.958;2022-09-21T07:14:45;102356.78;;;9.45;77.22
4143;BME280;2085;51.052;6.958;2022-09-21T07:17:12;102348.72;;;9.54;77.29
4143;BME280;2085;51.052;6.958;2022-09-21T07:19:39;102348.53;;;9.63;77.27
4143;BME280;2085;51.052;6.958;2022-09-21T07:22:05;102348.34;;;9.72;77.35
4143;BME280;2085;51.052;6.958;2022-09-21T07:24:32;102349.03;;;9.81;77.04
4143;BME280;2085;51.052;6.958;2022-09-21T07:26:58;102350.63;;;9.89;77.39
4143;BME280;2085;51.052;6.958;2022-09-21T07:29:25;102342.53;;;9.98;77.19
4143;BME280;2085;51.052;6.958;2022-09-21T07:31:53;102345.84;;;10.07;77.14
4143;BME280;2085;51.052;6.958;2022-09-21T07:34:20;102349.19;;;10.15;77.02
4143;BME280;2085;51.052;6.958;2022-09-21T07:36:46;102347.34;;;10.20;77.00
4143;BME280;2085;51.052;6.958;2022-09-21T07:39:13;102345.38;;;10.28;76.92
4143;BME280;2085;51.052;6.958;2022-09-21T07:41:39;102344.31;;;10.37;76.90
4143;BME280;2085;51.052;6.958;2022-09-21T07:44:06;102337.97;;;10.46;76.93
4143;BME280;2085;51.052;6.958;2022-09-21T07:46:32;102340.44;;;10.53;77.07
4143;BME280;2085;51.052;6.958;2022-09-21T07:49:01;102336.72;;;10.62;76.76
4143;BME280;2085;51.052;6.958;2022-09-21T07:51:30;102342.56;;;10.73;76.81
4143;BME280;2085;51.052;6.958;2022-09-21T07:53:56;102337.06;;;10.82;76.65
4143;BME280;2085;51.052;6.958;2022-09-21T07:56:23;102338.56;;;10.92;76.51
4143;BME280;2085;51.052;6.958;2022-09-21T07:58:50;102336.59;;;11.00;76.49
4143;BME280;2085;51.052;6.958;2022-09-21T08:01:32;102339.00;;;11.09;76.52
4143;BME280;2085;51.052;6.958;2022-09-21T08:03:59;102335.25;;;11.18;76.51
4143;BME280;2085;51.052;6.958;2022-09-21T08:06:28;102337.72;;;11.24;76.55
4143;BME280;2085;51.052;6.958;2022-09-21T08:08:57;102336.63;;;11.33;76.48
4143;BME280;2085;51.052;6.958;2022-09-21T08:11:23;102339.94;;;11.39;76.53
4143;BME280;2085;51.052;6.958;2022-09-21T08:13:52;102336.22;;;11.46;76.64
4143;BME280;2085;51.052;6.958;2022-09-21T08:16:19;102338.66;;;11.54;76.44
4143;BME280;2085;51.052;6.958;2022-09-21T08:18:45;102336.72;;;11.60;76.37
4143;BME280;2085;51.052;6.958;2022-09-21T08:21:12;102345.25;;;11.70;76.48
4143;BME280;2085;51.052;6.958;2022-09-21T08:23:40;102340.66;;;11.77;76.16
4143;BME280;2085;51.052;6.958;2022-09-21T08:26:10;102346.56;;;11.85;76.22
4143;BME280;2085;51.052;6.958;2022-09-21T08:28:41;102343.78;;;11.91;76.23
4143;BME280;2085;51.052;6.958;2022-09-21T08:31:09;102347.09;;;11.97;76.29
4143;BME280;2085;51.052;6.958;2022-09-21T08:33:35;102345.13;;;12.04;76.28
4143;BME280;2085;51.052;6.958;2022-09-21T08:36:03;102345.81;;;12.11;76.21
4143;BME280;2085;51.052;6.958;2022-09-21T08:38:31;102344.72;;;12.18;76.37
4143;BME280;2085;51.052;6.958;2022-09-21T08:41:00;102350.72;;;12.23;76.40
4143;BME280;2085;51.052;6.958;2022-09-21T08:43:30;102346.06;;;12.31;76.14
4143;BME280;2085;51.052;6.958;2022-09-21T08:46:03;102344.97;;;12.38;76.27
4143;BME280;2085;51.052;6.958;2022-09-21T08:48:35;102339.47;;;12.44;76.50
4143;BME280;2085;51.052;6.958;2022-09-21T08:51:06;102348.09;;;12.50;76.22
4143;BME280;2085;51.052;6.958;2022-09-21T08:53:36;102338.16;;;12.57;76.22
4143;BME280;2085;51.052;6.958;2022-09-21T08:56:07;102342.34;;;12.64;76.27
4143;BME280;2085;51.052;6.958;2022-09-21T08:58:36;102342.09;;;12.72;76.35
4143;BME280;2085;51.052;6.958;2022-09-21T09:01:18;102345.41;;;12.78;76.13
4143;BME280;2085;51.052;6.958;2022-09-21T09:06:42;102340.63;;;12.89;76.21
4143;BME280;2085;51.052;6.958;2022-09-21T09:09:25;102344.84;;;12.95;76.29
4143;BME280;2085;51.052;6.958;2022-09-21T09:12:14;102341.00;;;13.04;76.29
4143;BME280;2085;51.052;6.958;2022-09-21T09:15:05;102341.69;;;13.10;76.23
4143;BME280;2085;51.052;6.958;2022-09-21T09:17:45;102342.34;;;13.17;76.05
4143;BME280;2085;51.052;6.958;2022-09-21T09:20:17;102346.50;;;13.24;75.98
4143;BME280;2085;51.052;6.958;2022-09-21T09:22:47;102333.94;;;13.30;75.97
4143;BME280;2085;51.052;6.958;2022-09-21T09:25:18;102340.69;;;13.39;76.17
4143;BME280;2085;51.052;6.958;2022-09-21T09:27:49;102334.13;;;13.49;76.14
4143;BME280;2085;51.052;6.958;2022-09-21T09:30:19;102335.53;;;13.59;76.00
4143;BME280;2085;51.052;6.958;2022-09-21T09:32:51;102335.19;;;13.68;75.99
4143;BME280;2085;51.052;6.958;2022-09-21T09:35:24;102328.75;;;13.75;75.98
4143;BME280;2085;51.052;6.958;2022-09-21T09:37:54;102335.47;;;13.84;75.88
4143;BME280;2085;51.052;6.958;2022-09-21T09:40:33;102329.97;;;13.90;75.87
4143;BME280;2085;51.052;6.958;2022-09-21T09:43:10;102328.88;;;13.96;75.61
4143;BME280;2085;51.052;6.958;2022-09-21T09:45:46;102330.41;;;14.01;75.70
4143;BME280;2085;51.052;6.958;2022-09-21T09:48:29;102330.13;;;14.09;75.59
4143;BME280;2085;51.052;6.958;2022-09-21T09:50:58;102334.19;;;14.17;75.54
4143;BME280;2085;51.052;6.958;2022-09-21T09:53:25;102330.31;;;14.26;75.64
4143;BME280;2085;51.052;6.958;2022-09-21T09:55:54;102326.47;;;14.33;75.30
4143;BME280;2085;51.052;6.958;2022-09-21T09:58:33;102326.22;;;14.41;75.14
4143;BME280;2085;51.052;6.958;2022-09-21T10:01:01;102327.69;;;14.48;74.91
4143;BME280;2085;51.052;6.958;2022-09-21T10:03:28;102326.50;;;14.55;75.04
4143;BME280;2085;51.052;6.958;2022-09-21T10:05:55;102326.25;;;14.61;74.94
4143;BME280;2085;51.052;6.958;2022-09-21T10:08:30;102326.88;;;14.67;74.83
4143;BME280;2085;51.052;6.958;2022-09-21T10:11:06;102321.44;;;14.70;74.87
4143;BME280;2085;51.052;6.958;2022-09-21T10:13:35;102316.88;;;14.74;74.81
4143;BME280;2085;51.052;6.958;2022-09-21T10:16:04;102320.25;;;14.78;75.23
4143;BME280;2085;51.052;6.958;2022-09-21T10:18:36;102317.31;;;14.85;74.99
4143;BME280;2085;51.052;6.958;2022-09-21T10:21:06;102310.81;;;14.92;74.96
4143;BME280;2085;51.052;6.958;2022-09-21T10:23:34;102316.63;;;15.00;75.01
4143;BME280;2085;51.052;6.958;2022-09-21T10:26:04;102309.19;;;15.08;74.55
4143;BME280;2085;51.052;6.958;2022-09-21T10:28:34;102312.41;;;15.16;74.51
4143;BME280;2085;51.052;6.958;2022-09-21T10:31:10;102302.38;;;15.23;74.44
4143;BME280;2085;51.052;6.958;2022-09-21T10:33:50;102304.75;;;15.29;74.37
4143;BME280;2085;51.052;6.958;2022-09-21T10:36:31;102307.28;;;15.32;74.17
4143;BME280;2085;51.052;6.958;2022-09-21T10:39:21;102302.63;;;15.37;74.08
4143;BME280;2085;51.052;6.958;2022-09-21T10:41:54;102305.13;;;15.40;74.07
4143;BME280;2085;51.052;6.958;2022-09-21T10:44:25;102300.38;;;15.48;74.05
4143;BME280;2085;51.052;6.958;2022-09-21T10:46:53;102301.06;;;15.53;73.93
4143;BME280;2085;51.052;6.958;2022-09-21T10:49:23;102301.69;;;15.58;74.02
4143;BME280;2085;51.052;6.958;2022-09-21T10:51:51;102298.75;;;15.65;73.92
4143;BME280;2085;51.052;6.958;2022-09-21T10:54:22;102305.50;;;15.72;74.08
4143;BME280;2085;51.052;6.958;2022-09-21T10:56:52;102298.13;;;15.78;73.76
4143;BME280;2085;51.052;6.958;2022-09-21T10:59:22;102301.63;;;15.79;73.91
4143;BME280;2085;51.052;6.958;2022-09-21T11:01:52;102296.47;;;15.76;73.54
4143;BME280;2085;51.052;6.958;2022-09-21T11:04:27;102293.72;;;15.77;73.76
4143;BME280;2085;51.052;6.958;2022-09-21T11:07:00;102297.84;;;15.84;73.86
4143;BME280;2085;51.052;6.958;2022-09-21T11:09:33;102294.75;;;15.93;73.98
4143;BME280;2085;51.052;6.958;2022-09-21T11:12:07;102291.72;;;16.01;73.59
4143;BME280;2085;51.052;6.958;2022-09-21T11:14:44;102290.50;;;16.08;73.59
4143;BME280;2085;51.052;6.958;2022-09-21T11:17:19;102286.75;;;16.12;73.44
4143;BME280;2085;51.052;6.958;2022-09-21T11:19:56;102286.53;;;16.17;73.45
4143;BME280;2085;51.052;6.958;2022-09-21T11:22:33;102292.56;;;16.20;73.60
4143;BME280;2085;51.052;6.958;2022-09-21T11:25:06;102292.13;;;16.29;73.63
4143;BME280;2085;51.052;6.958;2022-09-21T11:27:44;102275.00;;;16.35;73.39
4143;BME280;2085;51.052;6.958;2022-09-21T11:30:15;102278.28;;;16.40;73.44
4143;BME280;2085;51.052;6.958;2022-09-21T11:33:02;102270.88;;;16.46;73.11
4143;BME280;2085;51.052;6.958;2022-09-21T11:35:37;102270.66;;;16.51;73.26
4143;BME280;2085;51.052;6.958;2022-09-21T11:38:11;102265.84;;;16.59;73.31
4143;BME280;2085;51.052;6.958;2022-09-21T11:40:57;102264.81;;;16.62;73.17
4143;BME280;2085;51.052;6.958;2022-09-21T11:43:39;102259.28;;;16.66;72.91
4143;BME280;2085;51.052;6.958;2022-09-21T11:46:17;102259.19;;;16.68;72.81
4143;BME280;2085;51.052;6.958;2022-09-21T11:48:56;102250.91;;;16.74;72.87
4143;BME280;2085;51.052;6.958;2022-09-21T11:51:35;102256.69;;;16.82;72.72
4143;BME280;2085;51.052;6.958;2022-09-21T11:54:25;102243.97;;;16.88;72.90
4143;BME280;2085;51.052;6.958;2022-09-21T11:56:58;102246.03;;;16.99;72.93
4143;BME280;2085;51.052;6.958;2022-09-21T11:59:48;102241.97;;;17.09;72.43
4143;BME280;2085;51.052;6.958;2022-09-21T12:02:49;102243.19;;;17.19;72.16
4143;BME280;2085;51.052;6.958;2022-09-21T12:05:29;102242.72;;;17.28;72.21
4143;BME280;2085;51.052;6.958;2022-09-21T12:08:20;102235.09;;;17.38;72.35
4143;BME280;2085;51.052;6.958;2022-09-21T12:11:00;102234.31;;;17.52;72.27
4143;BME280;2085;51.052;6.958;2022-09-21T12:13:33;102225.50;;;17.67;72.14
4143;BME280;2085;51.052;6.958;2022-09-21T12:16:10;102230.75;;;17.84;72.09
4143;BME280;2085;51.052;6.958;2022-09-21T12:18:44;102223.03;;;17.95;71.99
4143;BME280;2085;51.052;6.958;2022-09-21T12:21:17;102227.03;;;18.02;71.90
4143;BME280;2085;51.052;6.958;2022-09-21T12:23:48;102227.47;;;18.10;71.99
4143;BME280;2085;51.052;6.958;2022-09-21T12:26:18;102218.00;;;18.20;71.93
4143;BME280;2085;51.052;6.958;2022-09-21T12:28:49;102219.84;;;18.34;71.92
4143;BME280;2085;51.052;6.958;2022-09-21T12:31:22;102218.28;;;18.46;72.08
4143;BME280;2085;51.052;6.958;2022-09-21T12:33:51;102210.19;;;18.47;71.74
4143;BME280;2085;51.052;6.958;2022-09-21T12:36:24;102217.16;;;18.50;71.81
4143;BME280;2085;51.052;6.958;2022-09-21T12:38:57;102219.31;;;18.59;71.70
4143;BME280;2085;51.052;6.958;2022-09-21T12:41:32;102218.25;;;18.61;71.65
4143;BME280;2085;51.052;6.958;2022-09-21T12:44:11;102209.78;;;18.69;71.85
4143;BME280;2085;51.052;6.958;2022-09-21T12:46:44;102211.50;;;18.70;71.22
4143;BME280;2085;51.052;6.958;2022-09-21T12:49:16;102213.72;;;18.63;71.28
4143;BME280;2085;51.052;6.958;2022-09-21T12:51:49;102207.59;;;18.61;70.87
4143;BME280;2085;51.052;6.958;2022-09-21T12:54:26;102211.03;;;18.63;70.88
4143;BME280;2085;51.052;6.958;2022-09-21T12:57:00;102204.84;;;18.63;71.04
4143;BME280;2085;51.052;6.958;2022-09-21T12:59:34;102208.09;;;18.68;71.33
4143;BME280;2085;51.052;6.958;2022-09-21T13:02:15;102202.56;;;18.71;70.87
4143;BME280;2085;51.052;6.958;2022-09-21T13:04:52;102209.03;;;18.67;70.59
4143;BME280;2085;51.052;6.958;2022-09-21T13:07:54;102211.47;;;18.56;70.57
4143;BME280;2085;51.052;6.958;2022-09-21T13:10:35;102204.81;;;18.33;70.36
4143;BME280;2085;51.052;6.958;2022-09-21T13:13:06;102209.41;;;18.15;70.41
4143;BME280;2085;51.052;6.958;2022-09-21T13:15:42;102209.44;;;18.00;70.57
4143;BME280;2085;51.052;6.958;2022-09-21T13:18:20;102203.16;;;17.85;70.50
4143;BME280;2085;51.052;6.958;2022-09-21T13:20:47;102203.09;;;17.71;70.99
4143;BME280;2085;51.052;6.958;2022-09-21T13:23:21;102194.84;;;17.60;70.99
4143;BME280;2085;51.052;6.958;2022-09-21T13:25:58;102196.59;;;17.44;70.82
4143;BME280;2085;51.052;6.958;2022-09-21T13:28:40;102197.22;;;17.33;70.81
4143;BME280;2085;51.052;6.958;2022-09-21T13:31:31;102193.38;;;17.21;71.01
4143;BME280;2085;51.052;6.958;2022-09-21T13:34:05;102195.63;;;17.13;71.07
4143;BME280;2085;51.052;6.958;2022-09-21T13:36:34;102195.94;;;17.07;70.77
4143;BME280;2085;51.052;6.958;2022-09-21T13:39:17;102190.16;;;16.99;70.63
4143;BME280;2085;51.052;6.958;2022-09-21T13:41:44;102184.47;;;16.89;70.77
4143;BME280;2085;51.052;6.958;2022-09-21T13:44:20;102193.66;;;16.84;70.66
4143;BME280;2085;51.052;6.958;2022-09-21T13:46:49;102186.06;;;16.76;70.74
4143;BME280;2085;51.052;6.958;2022-09-21T13:49:22;102190.84;;;16.70;70.53
4143;BME280;2085;51.052;6.958;2022-09-21T13:51:53;102185.69;;;16.67;70.59
4143;BME280;2085;51.052;6.958;2022-09-21T13:54:24;102186.66;;;16.66;70.70
4143;BME280;2085;51.052;6.958;2022-09-21T13:57:01;102176.94;;;16.65;70.40
4143;BME280;2085;51.052;6.958;2022-09-21T13:59:30;102177.81;;;16.65;70.55
4143;BME280;2085;51.052;6.958;2022-09-21T14:01:58;102168.84;;;16.66;70.29
4143;BME280;2085;51.052;6.958;2022-09-21T14:04:26;102169.59;;;16.70;70.28
4143;BME280;2085;51.052;6.958;2022-09-21T14:06:54;102169.34;;;16.74;70.54